createdAt,value
2023-01-23T00:01:43.132Z,58.88
2023-01-23T00:06:04.765Z,62.31
2023-01-23T00:10:17.591Z,62.49
2023-01-23T00:14:30.145Z,64.17
2023-01-23T00:18:42.569Z,64.46
2023-01-23T00:22:55.264Z,62.09
2023-01-23T00:27:07.665Z,60.90
2023-01-23T00:31:23.279Z,61.94
2023-01-23T00:35:35.892Z,62.42
2023-01-23T00:39:51.115Z,60.79
2023-01-23T00:44:03.560Z,63.91
2023-01-23T00:48:16.129Z,65.40
2023-01-23T00:52:29.556Z,65.92
2023-01-23T00:56:41.958Z,66.22
2023-01-23T01:00:54.533Z,68.71
2023-01-23T01:05:07.202Z,68.84
2023-01-23T01:09:19.633Z,70.11
2023-01-23T01:13:32.240Z,71.62
2023-01-23T01:17:44.564Z,72.25
2023-01-23T01:21:56.967Z,72.17
2023-01-23T01:26:10.348Z,71.32
2023-01-23T01:30:23.030Z,71.43
2023-01-23T01:34:35.609Z,73.73
2023-01-23T01:38:48.829Z,74.74
2023-01-23T01:43:07.207Z,72.11
2023-01-23T01:47:19.619Z,71.19
2023-01-23T01:51:46.204Z,71.44
2023-01-23T01:55:59.288Z,71.12
2023-01-23T02:00:17.955Z,69.72
2023-01-23T02:04:36.622Z,70.51
2023-01-23T02:09:07.666Z,71.59
2023-01-23T02:13:39.601Z,71.69
2023-01-23T02:17:55.154Z,71.87
2023-01-23T02:22:27.698Z,71.24
2023-01-23T02:26:45.896Z,70.24
2023-01-23T02:31:00.329Z,69.53
2023-01-23T02:35:20.296Z,68.77
2023-01-23T02:39:33.502Z,67.46
2023-01-23T02:43:49.388Z,68.08
2023-01-23T02:48:02.214Z,68.24
2023-01-23T02:52:14.746Z,68.13
2023-01-23T02:56:27.105Z,68.18
2023-01-23T03:00:39.513Z,68.30
2023-01-23T03:04:51.951Z,68.09
2023-01-23T03:09:11.080Z,67.63
2023-01-23T03:13:24.568Z,66.88
2023-01-23T03:17:37.189Z,67.60
2023-01-23T03:21:50.487Z,67.59
2023-01-23T03:26:03.242Z,68.54
2023-01-23T03:30:17.474Z,69.09
2023-01-23T03:34:31.720Z,68.63
2023-01-23T03:39:04.385Z,69.85
2023-01-23T03:43:17.909Z,67.83
2023-01-23T03:47:34.274Z,67.50
2023-01-23T03:51:46.797Z,68.41
2023-01-23T03:55:59.237Z,68.57
2023-01-23T04:00:14.047Z,65.76
2023-01-23T04:04:29.335Z,64.72
2023-01-23T04:08:41.705Z,68.25
2023-01-23T04:12:55.031Z,69.56
2023-01-23T04:17:09.149Z,71.26
2023-01-23T04:21:22.754Z,72.53
2023-01-23T04:25:35.224Z,76.24
2023-01-23T04:29:49.927Z,77.46
2023-01-23T04:34:03.771Z,78.21
2023-01-23T04:38:16.171Z,78.95
2023-01-23T04:42:28.762Z,79.74
2023-01-23T04:46:54.305Z,80.10
2023-01-23T04:51:07.639Z,80.59
2023-01-23T04:55:20.703Z,81.34
2023-01-23T04:59:33.117Z,80.86
2023-01-23T05:03:46.918Z,81.35
2023-01-23T05:08:01.342Z,81.85
2023-01-23T05:12:15.024Z,82.82
2023-01-23T05:16:29.177Z,82.93
2023-01-23T05:21:07.550Z,83.30
2023-01-23T05:25:25.665Z,81.95
2023-01-23T05:29:40.322Z,84.28
2023-01-23T05:34:00.787Z,84.37
2023-01-23T05:38:13.811Z,83.83
2023-01-23T05:42:28.375Z,83.39
2023-01-23T05:47:09.650Z,85.67
2023-01-23T05:51:23.647Z,86.94
2023-01-23T05:55:39.953Z,88.28
2023-01-23T05:59:54.661Z,87.42
2023-01-23T06:04:27.075Z,88.08
2023-01-23T06:09:00.846Z,87.93
2023-01-23T06:13:15.722Z,88.60
2023-01-23T06:17:28.130Z,87.47
2023-01-23T06:21:40.662Z,87.28
2023-01-23T06:25:53.094Z,87.78
2023-01-23T06:30:06.605Z,88.33
2023-01-23T06:34:24.843Z,88.07
2023-01-23T06:38:42.294Z,88.69
2023-01-23T06:42:57.858Z,89.71
2023-01-23T06:47:10.299Z,88.80
2023-01-23T06:51:23.842Z,89.56
2023-01-23T06:55:36.550Z,90.17
2023-01-23T06:59:52.547Z,90.41
2023-01-23T07:04:06.409Z,90.81
2023-01-23T07:08:19.486Z,90.82
2023-01-23T07:12:32.715Z,90.87
2023-01-23T07:16:45.370Z,90.67
2023-01-23T07:20:57.903Z,90.63
2023-01-23T07:25:10.511Z,91.08
2023-01-23T07:29:22.859Z,91.00
2023-01-23T07:33:35.180Z,90.97
2023-01-23T07:37:48.004Z,91.10
2023-01-23T07:42:03.142Z,91.35
2023-01-23T07:46:15.824Z,91.44
2023-01-23T07:50:28.340Z,91.42
2023-01-23T07:54:40.681Z,91.05
2023-01-23T07:58:54.313Z,90.83
2023-01-23T08:03:08.461Z,90.99
2023-01-23T08:07:21.959Z,91.26
2023-01-23T08:11:34.573Z,91.45
2023-01-23T08:15:46.906Z,88.77
2023-01-23T08:19:59.370Z,88.37
2023-01-23T08:24:13.448Z,90.73
2023-01-23T08:28:26.840Z,90.51
2023-01-23T08:32:39.227Z,91.20
2023-01-23T08:36:51.989Z,90.23
2023-01-23T08:41:04.912Z,90.11
2023-01-23T08:45:17.318Z,90.52
2023-01-23T08:49:29.666Z,90.68
2023-01-23T08:53:42.510Z,90.51
2023-01-23T08:57:54.917Z,90.85
2023-01-23T09:02:07.406Z,92.30
2023-01-23T09:06:22.956Z,91.04
2023-01-23T09:10:35.417Z,90.39
2023-01-23T09:14:48.291Z,91.51
2023-01-23T09:19:00.710Z,89.96
2023-01-23T09:23:13.108Z,89.53
2023-01-23T09:27:25.745Z,89.88
2023-01-23T09:31:38.459Z,89.35
2023-01-23T09:35:54.128Z,91.89
2023-01-23T09:40:09.043Z,89.76
2023-01-23T09:44:31.882Z,89.50
2023-01-23T09:48:47.712Z,89.17
2023-01-23T09:53:06.319Z,87.96
2023-01-23T09:57:26.491Z,90.27
2023-01-23T10:01:39.229Z,87.48
2023-01-23T10:06:16.839Z,88.17
2023-01-23T10:10:47.986Z,88.39
2023-01-23T10:15:37.704Z,86.35
2023-01-23T10:20:03.394Z,86.75
2023-01-23T10:24:49.984Z,85.44
2023-01-23T10:29:22.555Z,85.22
2023-01-23T10:33:49.554Z,85.40
2023-01-23T10:38:12.711Z,84.81
2023-01-23T10:42:27.753Z,84.19
2023-01-23T10:46:49.776Z,82.83
2023-01-23T10:51:02.367Z,84.61
2023-01-23T10:55:20.693Z,83.45
2023-01-23T10:59:41.640Z,81.59
2023-01-23T11:03:54.476Z,82.99
2023-01-23T11:08:27.706Z,81.27
2023-01-23T11:12:51.877Z,80.83
2023-01-23T11:17:19.104Z,82.99
2023-01-23T11:21:56.474Z,84.74
2023-01-23T11:26:31.746Z,83.02
2023-01-23T11:31:15.775Z,82.73
2023-01-23T11:35:57.884Z,82.35
2023-01-23T11:40:28.947Z,83.87
2023-01-23T11:44:46.433Z,82.72
2023-01-23T11:49:05.085Z,88.24
2023-01-23T11:53:43.119Z,83.34
2023-01-23T11:58:05.218Z,79.84
2023-01-23T12:02:43.800Z,81.73
2023-01-23T12:07:22.522Z,81.19
2023-01-23T12:11:46.608Z,80.62
2023-01-23T12:16:17.527Z,81.74
2023-01-23T12:20:39.800Z,80.02
2023-01-23T12:25:31.876Z,79.37
2023-01-23T12:30:12.612Z,76.72
2023-01-23T12:34:31.093Z,77.33
2023-01-23T12:39:10.018Z,76.01
2023-01-23T12:43:54.969Z,75.10
2023-01-23T12:48:14.405Z,75.02
2023-01-23T12:52:44.041Z,74.25
2023-01-23T12:56:56.880Z,75.09
2023-01-23T13:01:46.894Z,73.93
2023-01-23T13:06:01.955Z,73.69
2023-01-23T13:10:57.713Z,73.30
2023-01-23T13:15:38.767Z,74.60
2023-01-23T13:20:12.188Z,75.25
2023-01-23T13:24:52.082Z,75.45
2023-01-23T13:29:25.801Z,75.72
2023-01-23T13:33:40.197Z,75.42
2023-01-23T13:37:52.579Z,75.34
2023-01-23T13:42:10.683Z,75.83
2023-01-23T14:24:05.393Z,74.44
2023-01-23T14:28:19.243Z,74.63
2023-01-23T14:32:34.425Z,74.79
2023-01-23T14:36:52.733Z,75.95
2023-01-23T14:41:07.688Z,74.93
2023-01-23T14:45:20.377Z,75.73
2023-01-23T14:49:41.529Z,78.27
2023-01-23T14:54:02.801Z,79.39
2023-01-23T14:58:25.613Z,80.39
2023-01-23T15:02:38.040Z,81.71
2023-01-23T15:06:56.932Z,82.00
2023-01-23T15:11:12.340Z,81.67
2023-01-23T15:15:26.788Z,82.28
2023-01-23T15:19:43.048Z,82.90
2023-01-23T15:24:10.537Z,82.39
2023-01-23T15:28:39.857Z,80.75
2023-01-23T15:32:52.258Z,80.66
2023-01-23T15:37:24.664Z,81.96
2023-01-23T15:42:03.594Z,83.48
2023-01-23T15:46:17.968Z,81.66
2023-01-23T15:50:30.773Z,82.56
2023-01-23T15:54:43.305Z,84.35
2023-01-23T15:58:56.174Z,84.20
2023-01-23T16:03:08.695Z,83.32
2023-01-23T16:07:25.783Z,84.83
2023-01-23T16:11:39.123Z,88.02
2023-01-23T16:15:52.834Z,87.58
2023-01-23T16:20:07.251Z,83.41
2023-01-23T16:24:22.622Z,85.08
2023-01-23T16:28:35.063Z,84.02
2023-01-23T16:32:47.491Z,82.93
2023-01-23T16:37:01.309Z,83.52
2023-01-23T16:41:14.076Z,85.11
2023-01-23T16:45:31.473Z,87.14
2023-01-23T16:49:52.090Z,84.02
2023-01-23T16:54:18.296Z,85.29
2023-01-23T16:58:41.365Z,87.99
2023-01-23T17:02:56.525Z,84.83
2023-01-23T17:07:19.415Z,89.17
2023-01-23T17:11:39.058Z,86.24
2023-01-23T17:15:54.772Z,84.26
2023-01-23T17:20:07.853Z,84.75
2023-01-23T17:24:20.310Z,84.53
2023-01-23T17:28:32.929Z,84.44
2023-01-23T17:32:50.402Z,84.09
2023-01-23T17:37:02.985Z,84.04
2023-01-23T17:41:16.851Z,83.57
2023-01-23T17:45:29.382Z,84.12
2023-01-23T17:50:01.578Z,83.48
2023-01-23T17:54:19.826Z,83.43
2023-01-23T17:58:34.508Z,84.06
2023-01-23T18:02:52.529Z,84.12
2023-01-23T18:07:08.188Z,84.23
2023-01-23T18:11:24.845Z,83.59
2023-01-23T18:16:00.575Z,84.80
2023-01-23T18:20:23.768Z,82.89
2023-01-23T18:24:38.647Z,84.20
2023-01-23T18:29:13.791Z,85.34
2023-01-23T18:34:09.288Z,85.67
2023-01-23T18:38:37.131Z,86.88
2023-01-23T18:43:20.406Z,89.29
2023-01-23T18:47:33.107Z,87.14
2023-01-23T18:52:08.620Z,88.16
2023-01-23T18:56:48.792Z,86.44
2023-01-23T19:01:27.083Z,85.13
2023-01-23T19:05:44.736Z,89.75
2023-01-23T19:09:57.742Z,87.55
2023-01-23T19:14:53.741Z,86.06
2023-01-23T19:19:28.487Z,85.89
2023-01-23T19:24:01.126Z,85.67
2023-01-23T19:28:13.981Z,84.69
2023-01-23T19:32:27.122Z,89.79
2023-01-23T19:36:39.857Z,87.67
2023-01-23T19:40:53.554Z,86.22
2023-01-23T19:45:06.608Z,86.55
2023-01-23T19:49:19.359Z,86.24
2023-01-23T19:53:33.281Z,85.95
2023-01-23T19:57:45.936Z,89.86
2023-01-23T20:01:58.522Z,87.32
2023-01-23T20:06:13.951Z,84.18
2023-01-23T20:10:27.410Z,87.91
2023-01-23T20:14:40.256Z,84.74
2023-01-23T20:18:54.723Z,85.13
2023-01-23T20:23:07.286Z,88.70
2023-01-23T20:27:20.576Z,83.83
2023-01-23T20:31:33.337Z,85.30
2023-01-23T20:35:49.137Z,85.33
2023-01-23T20:40:01.609Z,84.83
2023-01-23T20:44:15.498Z,86.52
2023-01-23T20:48:34.343Z,88.19
2023-01-23T20:53:05.357Z,88.31
2023-01-23T20:57:17.917Z,87.04
2023-01-23T21:01:52.226Z,86.66
2023-01-23T21:06:04.870Z,86.03
2023-01-23T21:10:17.555Z,85.62
2023-01-23T21:14:30.157Z,85.94
2023-01-23T21:18:46.562Z,84.50
2023-01-23T21:22:58.986Z,84.35
2023-01-23T21:27:11.397Z,85.30
2023-01-23T21:31:25.432Z,84.99
2023-01-23T21:35:37.817Z,84.25
2023-01-23T21:39:50.665Z,80.64
2023-01-23T21:44:03.054Z,80.51
2023-01-23T21:48:15.457Z,81.41
2023-01-23T21:52:27.871Z,78.15
2023-01-23T21:56:41.067Z,78.27
2023-01-23T22:01:20.146Z,77.30
2023-01-23T22:05:36.528Z,76.17
2023-01-23T22:09:48.916Z,79.61
2023-01-23T22:14:01.656Z,76.30
2023-01-23T22:18:14.059Z,79.87
2023-01-23T22:22:26.758Z,77.96
2023-01-23T22:26:39.205Z,79.07
2023-01-23T22:30:51.657Z,80.81
2023-01-23T22:35:04.232Z,79.58
2023-01-23T22:39:16.728Z,81.06
2023-01-23T22:43:29.628Z,76.47
2023-01-23T22:47:42.152Z,76.30
2023-01-23T22:51:54.647Z,75.50
2023-01-23T22:56:07.936Z,75.48
2023-01-23T23:00:20.966Z,77.43
2023-01-23T23:04:34.803Z,75.03
2023-01-23T23:08:51.383Z,75.54
2023-01-23T23:13:04.120Z,74.82
2023-01-23T23:17:16.921Z,75.97
2023-01-23T23:21:32.964Z,76.36
2023-01-23T23:25:45.268Z,77.08
2023-01-23T23:30:00.428Z,79.65
2023-01-23T23:34:12.795Z,79.35
2023-01-23T23:38:25.363Z,80.40
2023-01-23T23:42:38.109Z,81.49
2023-01-23T23:46:50.372Z,80.71
2023-01-23T23:51:05.392Z,82.65
2023-01-23T23:55:18.080Z,82.50
2023-01-23T23:59:30.554Z,83.02
